createdAt,value
2018-02-09T00:00:13.388Z,-1.52
2018-02-09T00:01:13.410Z,-1.46
2018-02-09T00:02:13.424Z,-1.53
2018-02-09T00:03:13.433Z,-1.50
2018-02-09T00:04:13.448Z,-1.49
2018-02-09T00:05:13.468Z,-1.48
2018-02-09T00:06:13.484Z,-1.45
2018-02-09T00:07:13.492Z,-1.55
2018-02-09T00:08:13.508Z,-1.49
2018-02-09T00:09:13.528Z,-1.48
2018-02-09T00:10:13.543Z,-1.48
2018-02-09T00:11:13.551Z,-1.46
2018-02-09T00:12:13.568Z,-1.48
2018-02-09T00:13:13.587Z,-1.50
2018-02-09T00:14:13.604Z,-1.55
2018-02-09T00:15:13.611Z,-1.63
2018-02-09T00:16:13.632Z,-1.66
2018-02-09T00:17:13.641Z,-1.52
2018-02-09T00:18:13.664Z,-1.52
2018-02-09T00:19:13.670Z,-1.50
2018-02-09T00:20:13.696Z,-1.46
2018-02-09T00:21:13.701Z,-1.45
2018-02-09T00:22:13.721Z,-1.48
2018-02-09T00:23:13.730Z,-1.49
2018-02-09T00:24:13.750Z,-1.49
2018-02-09T00:25:13.761Z,-1.48
2018-02-09T00:26:13.780Z,-1.48
2018-02-09T00:27:13.790Z,-1.50
2018-02-09T00:28:13.809Z,-1.45
2018-02-09T00:29:13.820Z,-1.49
2018-02-09T00:30:13.833Z,-1.50
2018-02-09T00:31:13.853Z,-1.55
2018-02-09T00:32:13.863Z,-1.53
2018-02-09T00:33:13.884Z,-1.49
2018-02-09T00:34:13.943Z,-1.49
2018-02-09T00:35:13.915Z,-1.49
2018-02-09T00:36:13.923Z,-1.56
2018-02-09T00:37:13.943Z,-1.52
2018-02-09T00:38:13.952Z,-1.46
2018-02-09T00:39:13.972Z,-1.37
2018-02-09T00:40:13.981Z,-1.49
2018-02-09T00:41:14.003Z,-1.48
2018-02-09T00:42:14.018Z,-1.42
2018-02-09T00:43:14.031Z,-1.43
2018-02-09T00:44:14.040Z,-1.42
2018-02-09T00:45:14.062Z,-1.50
2018-02-09T00:46:14.077Z,-1.49
2018-02-09T00:47:14.084Z,-1.46
2018-02-09T00:48:14.100Z,-1.49
2018-02-09T00:49:14.121Z,-1.46
2018-02-09T00:50:14.134Z,-1.46
2018-02-09T00:51:14.144Z,-1.46
2018-02-09T00:52:14.157Z,-1.50
2018-02-09T00:53:14.180Z,-1.49
2018-02-09T00:54:14.195Z,-1.45
2018-02-09T00:55:14.202Z,-1.45
2018-02-09T00:56:14.217Z,-1.49
2018-02-09T00:57:14.238Z,-1.46
2018-02-09T00:58:14.252Z,-1.45
2018-02-09T00:59:14.260Z,-1.43
2018-02-09T01:00:14.277Z,-1.48
2018-02-09T01:01:14.296Z,-1.40
2018-02-09T01:02:14.305Z,-1.49
2018-02-09T01:03:14.325Z,-1.38
2018-02-09T01:04:14.334Z,-1.46
2018-02-09T01:05:14.355Z,-1.49
2018-02-09T01:06:14.364Z,-1.50
2018-02-09T01:07:14.384Z,-1.50
2018-02-09T01:08:14.396Z,-1.49
2018-02-09T01:09:14.414Z,-1.45
2018-02-09T01:10:14.424Z,-1.46
2018-02-09T01:11:14.437Z,-1.52
2018-02-09T01:12:14.458Z,-1.46
2018-02-09T01:13:14.472Z,-1.43
2018-02-09T01:14:14.487Z,-1.37
2018-02-09T01:15:14.501Z,-1.35
2018-02-09T01:16:14.512Z,-1.34
2018-02-09T01:17:14.530Z,-1.38
2018-02-09T01:18:14.547Z,-1.37
2018-02-09T01:19:14.555Z,-1.35
2018-02-09T01:20:14.574Z,-1.34
2018-02-09T01:21:14.585Z,-1.34
2018-02-09T01:22:14.605Z,-1.38
2018-02-09T01:23:14.614Z,-1.30
2018-02-09T01:24:14.634Z,-1.27
2018-02-09T01:25:14.643Z,-1.35
2018-02-09T01:26:14.664Z,-1.37
2018-02-09T01:27:14.672Z,-1.25
2018-02-09T01:28:14.687Z,-1.16
2018-02-09T01:29:14.707Z,-1.16
2018-02-09T01:30:14.717Z,-1.16
2018-02-09T01:31:14.733Z,-1.19
2018-02-09T01:32:14.746Z,-1.16
2018-02-09T01:33:14.762Z,-1.14
2018-02-09T01:34:14.783Z,-1.19
2018-02-09T01:35:14.792Z,-1.21
2018-02-09T01:36:14.806Z,-1.19
2018-02-09T01:37:14.826Z,-1.31
2018-02-09T01:38:14.841Z,-1.22
2018-02-09T01:39:14.850Z,-1.24
2018-02-09T01:40:14.865Z,-1.22
2018-02-09T01:41:14.890Z,-1.19
2018-02-09T01:42:14.896Z,-1.25
2018-02-09T01:43:14.909Z,-1.25
2018-02-09T01:44:14.930Z,-1.27
2018-02-09T01:45:14.941Z,-1.28
2018-02-09T01:46:14.955Z,-1.21
2018-02-09T01:47:14.975Z,-1.14
2018-02-09T01:48:14.990Z,-1.21
2018-02-09T01:49:15.006Z,-1.22
2018-02-09T01:50:15.015Z,-1.19
2018-02-09T01:51:15.035Z,-1.13
2018-02-09T01:52:15.059Z,-1.10
2018-02-09T01:53:15.063Z,-1.09
2018-02-09T01:54:15.079Z,-1.06
2018-02-09T01:55:15.094Z,-1.04
2018-02-09T01:56:15.110Z,-1.03
2018-02-09T01:57:15.119Z,-1.04
2018-02-09T01:58:15.139Z,-1.09
2018-02-09T01:59:15.154Z,-0.99
2018-02-09T02:00:15.165Z,-0.98
2018-02-09T02:01:15.185Z,-1.06
2018-02-09T02:02:15.200Z,-1.10
2018-02-09T02:03:15.208Z,-1.10
2018-02-09T02:04:15.225Z,-1.14
2018-02-09T02:05:15.240Z,-1.10
2018-02-09T02:06:15.260Z,-1.16
2018-02-09T02:07:15.270Z,-1.11
2018-02-09T02:08:15.289Z,-1.13
2018-02-09T02:09:15.299Z,-1.06
2018-02-09T02:10:15.320Z,-1.06
2018-02-09T02:11:15.329Z,-1.06
2018-02-09T02:12:15.350Z,-1.06
2018-02-09T02:13:15.360Z,-1.07
2018-02-09T02:14:15.381Z,-1.09
2018-02-09T02:15:15.395Z,-1.10
2018-02-09T02:16:15.410Z,-1.10
2018-02-09T02:17:15.420Z,-1.21
2018-02-09T02:18:15.442Z,-1.11
2018-02-09T02:19:15.451Z,-1.16
2018-02-09T02:20:15.472Z,-1.13
2018-02-09T02:21:15.488Z,-1.14
2018-02-09T02:22:15.497Z,-1.19
2018-02-09T02:23:15.516Z,-1.09
2018-02-09T02:24:15.531Z,-1.13
2018-02-09T02:25:15.540Z,-1.21
2018-02-09T02:26:15.557Z,-1.13
2018-02-09T02:27:15.576Z,-1.10
2018-02-09T02:28:15.591Z,-1.21
2018-02-09T02:29:15.599Z,-1.13
2018-02-09T02:30:15.616Z,-1.11
2018-02-09T02:31:15.632Z,-1.16
2018-02-09T02:32:15.646Z,-1.09
2018-02-09T02:33:15.666Z,-1.11
2018-02-09T02:34:15.676Z,-1.19
2018-02-09T02:35:15.695Z,-1.16
2018-02-09T02:36:15.706Z,-1.27
2018-02-09T02:37:15.723Z,-1.17
2018-02-09T02:38:15.735Z,-1.22
2018-02-09T02:39:15.756Z,-1.24
2018-02-09T02:40:15.770Z,-1.19
2018-02-09T02:41:15.782Z,-1.24
2018-02-09T02:42:15.797Z,-1.28
2018-02-09T02:43:15.820Z,-1.28
2018-02-09T02:44:15.832Z,-1.21
2018-02-09T02:45:15.840Z,-1.37
2018-02-09T02:46:15.857Z,-1.42
2018-02-09T02:47:15.871Z,-1.45
2018-02-09T02:48:15.892Z,-1.40
2018-02-09T02:49:15.901Z,-1.46
2018-02-09T02:50:15.916Z,-1.48
2018-02-09T02:51:15.936Z,-1.49
2018-02-09T02:52:15.952Z,-1.48
2018-02-09T02:53:15.966Z,-1.48
2018-02-09T02:54:15.975Z,-1.43
2018-02-09T02:55:15.995Z,-1.53
2018-02-09T02:56:16.005Z,-1.48
2018-02-09T02:57:16.026Z,-1.49
2018-02-09T02:58:16.037Z,-1.48
2018-02-09T02:59:16.054Z,-1.43
2018-02-09T03:00:16.064Z,-1.46
2018-02-09T03:01:16.085Z,-1.46
2018-02-09T03:02:16.101Z,-1.43
2018-02-09T03:03:16.114Z,-1.45
2018-02-09T03:04:16.123Z,-1.45
2018-02-09T03:05:16.143Z,-1.40
2018-02-09T03:06:16.158Z,-1.43
2018-02-09T03:07:16.166Z,-1.38
2018-02-09T03:08:16.184Z,-1.46
2018-02-09T03:09:16.199Z,-1.38
2018-02-09T03:10:16.212Z,-1.55
2018-02-09T03:11:16.232Z,-1.45
2018-02-09T03:12:16.241Z,-1.49
2018-02-09T03:13:16.263Z,-1.50
2018-02-09T03:14:16.272Z,-1.55
2018-02-09T03:15:16.291Z,-1.56
2018-02-09T03:16:16.301Z,-1.58
2018-02-09T03:17:16.321Z,-1.50
2018-02-09T03:18:16.330Z,-1.64
2018-02-09T03:19:16.350Z,-1.66
2018-02-09T03:20:16.361Z,-1.60
2018-02-09T03:21:16.381Z,-1.63
2018-02-09T03:22:16.390Z,-1.60
2018-02-09T03:23:16.408Z,-1.64
2018-02-09T03:24:16.419Z,-1.58
2018-02-09T03:25:16.438Z,-1.64
2018-02-09T03:26:16.455Z,-1.70
2018-02-09T03:27:16.464Z,-1.71
2018-02-09T03:28:16.484Z,-1.64
2018-02-09T03:29:16.493Z,-1.61
2018-02-09T03:30:16.514Z,-1.60
2018-02-09T03:31:16.522Z,-1.64
2018-02-09T03:32:16.543Z,-1.67
2018-02-09T03:33:16.552Z,-1.61
2018-02-09T03:34:16.572Z,-1.64
2018-02-09T03:35:16.581Z,-1.67
2018-02-09T03:36:16.601Z,-1.66
2018-02-09T03:37:16.611Z,-1.68
2018-02-09T03:38:16.630Z,-1.74
2018-02-09T03:39:16.639Z,-1.67
2018-02-09T03:40:16.660Z,-1.64
2018-02-09T03:41:16.668Z,-1.71
2018-02-09T03:42:16.687Z,-1.71
2018-02-09T03:43:16.703Z,-1.67
2018-02-09T03:44:16.718Z,-1.63
2018-02-09T03:45:16.729Z,-1.68
2018-02-09T03:46:16.743Z,-1.64
2018-02-09T03:47:16.763Z,-1.63
2018-02-09T03:48:16.779Z,-1.45
2018-02-09T03:49:16.787Z,-1.52
2018-02-09T03:50:16.803Z,-1.50
2018-02-09T03:51:16.821Z,-1.49
2018-02-09T03:52:16.836Z,-1.63
2018-02-09T03:53:16.845Z,-1.60
2018-02-09T03:54:16.861Z,-1.56
2018-02-09T03:55:16.880Z,-1.48
2018-02-09T03:56:16.895Z,-1.46
2018-02-09T03:57:16.904Z,-1.48
2018-02-09T03:58:16.924Z,-1.48
2018-02-09T03:59:16.933Z,-1.52
2018-02-09T04:00:16.952Z,-1.52
2018-02-09T04:01:16.969Z,-1.49
2018-02-09T04:02:16.985Z,-1.52
2018-02-09T04:03:16.992Z,-1.49
2018-02-09T04:04:17.011Z,-1.45
2018-02-09T04:05:17.028Z,-1.42
2018-02-09T04:06:17.044Z,-1.38
2018-02-09T04:07:17.053Z,-1.37
2018-02-09T04:08:17.067Z,-1.35
2018-02-09T04:09:17.087Z,-1.34
2018-02-09T04:10:17.101Z,-1.42
2018-02-09T04:11:17.111Z,-1.42
2018-02-09T04:12:17.126Z,-1.49
2018-02-09T04:13:17.146Z,-1.49
2018-02-09T04:14:17.162Z,-1.43
2018-02-09T04:15:17.170Z,-1.49
2018-02-09T04:16:17.193Z,-1.46
2018-02-09T04:17:17.200Z,-1.53
2018-02-09T04:18:17.220Z,-1.49
2018-02-09T04:19:17.229Z,-1.40
2018-02-09T04:20:17.250Z,-1.40
2018-02-09T04:21:17.259Z,-1.37
2018-02-09T04:22:17.273Z,-1.35
2018-02-09T04:23:17.293Z,-1.37
2018-02-09T04:24:17.303Z,-1.32
2018-02-09T04:25:17.325Z,-1.34
2018-02-09T04:26:17.333Z,-1.22
2018-02-09T04:27:17.353Z,-1.34
2018-02-09T04:28:17.362Z,-1.34
2018-02-09T04:29:17.383Z,-1.32
2018-02-09T04:30:17.397Z,-1.40
2018-02-09T04:31:17.449Z,-1.34
2018-02-09T04:32:17.422Z,-1.37
2018-02-09T04:33:17.443Z,-1.38
2018-02-09T04:34:17.456Z,-1.19
2018-02-09T04:35:17.466Z,-1.22
2018-02-09T04:36:17.481Z,-1.16
2018-02-09T04:37:17.503Z,-1.11
2018-02-09T04:38:17.517Z,-1.10
2018-02-09T04:39:17.526Z,-1.06
2018-02-09T04:40:17.546Z,-1.10
2018-02-09T04:41:17.556Z,-1.06
2018-02-09T04:42:17.577Z,-1.13
2018-02-09T04:43:17.586Z,-1.07
2018-02-09T04:44:17.606Z,-1.06
2018-02-09T04:45:17.616Z,-1.04
2018-02-09T04:46:17.636Z,-1.01
2018-02-09T04:47:17.645Z,-1.03
2018-02-09T04:48:17.660Z,-1.03
2018-02-09T04:49:17.681Z,-1.01
2018-02-09T04:50:17.699Z,-1.09
2018-02-09T04:51:17.705Z,-1.14
2018-02-09T04:52:17.727Z,-1.11
2018-02-09T04:53:17.742Z,-1.07
2018-02-09T04:54:17.751Z,-1.16
2018-02-09T04:55:17.772Z,-1.21
2018-02-09T04:56:17.787Z,-1.14
2018-02-09T04:57:17.796Z,-1.21
2018-02-09T04:58:17.811Z,-1.19
2018-02-09T04:59:17.831Z,-1.22
2018-02-09T05:00:17.846Z,-1.14
2018-02-09T05:01:17.855Z,-1.10
2018-02-09T05:02:17.870Z,-1.13
2018-02-09T05:03:17.893Z,-1.09
2018-02-09T05:04:17.904Z,-1.13
2018-02-09T05:05:17.922Z,-1.07
2018-02-09T05:06:17.933Z,-1.07
2018-02-09T05:07:17.954Z,-1.09
2018-02-09T05:08:17.962Z,-1.14
2018-02-09T05:09:17.984Z,-1.14
2018-02-09T05:10:17.997Z,-1.11
2018-02-09T05:11:18.006Z,-1.10
2018-02-09T05:12:18.021Z,-1.07
2018-02-09T05:13:18.044Z,-1.10
2018-02-09T05:14:18.057Z,-1.17
2018-02-09T05:15:18.067Z,-1.25
2018-02-09T05:16:18.081Z,-1.28
2018-02-09T05:17:18.103Z,-1.21
2018-02-09T05:18:18.118Z,-1.16
2018-02-09T05:19:18.126Z,-1.13
2018-02-09T05:20:18.142Z,-1.25
2018-02-09T05:21:18.161Z,-1.21
2018-02-09T05:22:18.178Z,-1.14
2018-02-09T05:23:18.193Z,-1.19
2018-02-09T05:24:18.206Z,-1.13
2018-02-09T05:25:18.221Z,-1.13
2018-02-09T05:26:18.232Z,-1.06
2018-02-09T05:27:18.252Z,-1.06
2018-02-09T05:28:18.267Z,-1.09
2018-02-09T05:29:18.277Z,-1.09
2018-02-09T05:30:18.298Z,-1.04
2018-02-09T05:31:18.311Z,-1.09
2018-02-09T05:32:18.327Z,-1.01
2018-02-09T05:33:18.342Z,-0.99
2018-02-09T05:34:18.352Z,-1.07
2018-02-09T05:35:18.372Z,-1.06
2018-02-09T05:36:18.386Z,-1.03
2018-02-09T05:37:18.399Z,-1.06
2018-02-09T05:38:18.412Z,-1.10
2018-02-09T05:39:18.432Z,-1.16
2018-02-09T05:40:18.446Z,-1.07
2018-02-09T05:41:18.504Z,-1.11
2018-02-09T05:42:18.478Z,-1.07
2018-02-09T05:43:18.491Z,-1.10
2018-02-09T05:44:18.501Z,-1.10
2018-02-09T05:45:18.522Z,-1.01
2018-02-09T05:46:18.537Z,-1.06
2018-02-09T05:47:18.546Z,-1.16
2018-02-09T05:48:18.561Z,-1.03
2018-02-09T05:49:18.575Z,-1.13
2018-02-09T05:50:18.592Z,-1.14
2018-02-09T05:51:18.611Z,-1.01
2018-02-09T05:52:18.620Z,-1.03
2018-02-09T05:53:18.641Z,-1.11
2018-02-09T05:54:18.651Z,-1.06
2018-02-09T05:55:18.670Z,-1.03
2018-02-09T05:56:18.681Z,-0.98
2018-02-09T05:57:18.702Z,-0.95
2018-02-09T05:58:18.717Z,-0.89
2018-02-09T05:59:18.731Z,-0.85
2018-02-09T06:00:18.742Z,-0.85
2018-02-09T06:01:18.760Z,-0.89
2018-02-09T06:02:18.777Z,-0.96
2018-02-09T06:03:18.785Z,-0.89
2018-02-09T06:04:18.801Z,-0.84
2018-02-09T06:05:18.818Z,-0.85
2018-02-09T06:06:18.837Z,-0.84
2018-02-09T06:07:18.845Z,-0.87
2018-02-09T06:08:18.905Z,-0.85
2018-02-09T06:09:18.876Z,-0.89
2018-02-09T06:10:18.899Z,-0.95
2018-02-09T06:11:18.906Z,-0.93
2018-02-09T06:12:18.926Z,-0.93
2018-02-09T06:13:18.936Z,-0.91
2018-02-09T06:14:19.001Z,-0.98
2018-02-09T06:15:18.965Z,-0.89
2018-02-09T06:16:18.981Z,-0.91
2018-02-09T06:17:19.003Z,-0.85
2018-02-09T06:18:19.011Z,-0.87
2018-02-09T06:19:19.032Z,-0.89
2018-02-09T06:20:19.044Z,-0.85
2018-02-09T06:21:19.057Z,-0.89
2018-02-09T06:22:19.078Z,-0.84
2018-02-09T06:23:19.086Z,-0.77
2018-02-09T06:24:19.102Z,-0.79
2018-02-09T06:25:19.123Z,-0.73
2018-02-09T06:26:19.150Z,-0.80
2018-02-09T06:27:19.148Z,-0.82
2018-02-09T06:28:19.165Z,-0.79
2018-02-09T06:29:19.184Z,-0.85
2018-02-09T06:30:19.192Z,-0.79
2018-02-09T06:31:19.214Z,-0.79
2018-02-09T06:32:19.223Z,-0.82
2018-02-09T06:33:19.239Z,-0.87
2018-02-09T06:34:19.259Z,-0.84
2018-02-09T06:35:19.274Z,-0.82
2018-02-09T06:36:19.287Z,-0.84
2018-02-09T06:37:19.298Z,-0.80
2018-02-09T06:38:19.314Z,-0.82
2018-02-09T06:39:19.334Z,-0.77
2018-02-09T06:40:19.355Z,-0.79
2018-02-09T06:41:19.359Z,-0.82
2018-02-09T06:42:19.376Z,-0.84
2018-02-09T06:43:19.394Z,-0.87
2018-02-09T06:44:19.413Z,-0.96
2018-02-09T06:45:19.420Z,-0.77
2018-02-09T06:46:19.441Z,-0.82
2018-02-09T06:47:19.499Z,-0.76
2018-02-09T06:48:19.475Z,-0.74
2018-02-09T06:49:19.481Z,-0.64
2018-02-09T06:50:19.495Z,-0.74
2018-02-09T06:51:19.511Z,-0.82
2018-02-09T06:52:19.532Z,-0.62
2018-02-09T06:53:19.546Z,-0.62
2018-02-09T06:54:19.560Z,-0.64
2018-02-09T06:55:19.577Z,-0.67
2018-02-09T06:56:19.587Z,-0.59
2018-02-09T06:57:19.608Z,-0.70
2018-02-09T06:58:19.616Z,-0.80
2018-02-09T06:59:19.636Z,-0.89
2018-02-09T07:00:19.645Z,-0.89
2018-02-09T07:01:19.667Z,-0.96
2018-02-09T07:02:19.677Z,-0.99
2018-02-09T07:03:19.690Z,-0.99
2018-02-09T07:04:19.706Z,-1.09
2018-02-09T07:05:19.727Z,-0.99
2018-02-09T07:06:19.738Z,-1.06
2018-02-09T07:07:19.757Z,-1.07
2018-02-09T07:08:19.769Z,-1.10
2018-02-09T07:09:19.782Z,-1.22
2018-02-09T07:10:19.803Z,-1.13
2018-02-09T07:11:19.814Z,-1.13
2018-02-09T07:12:19.893Z,-1.11
2018-02-09T07:13:19.842Z,-1.10
2018-02-09T07:14:19.862Z,-1.11
2018-02-09T07:15:19.890Z,-1.11
2018-02-09T07:16:19.891Z,-1.14
2018-02-09T07:17:19.901Z,-1.17
2018-02-09T07:18:19.923Z,-1.19
2018-02-09T07:19:19.937Z,-1.16
2018-02-09T07:20:19.952Z,-1.17
2018-02-09T07:21:19.963Z,-1.22
2018-02-09T07:22:19.982Z,-1.21
2018-02-09T07:23:19.991Z,-1.13
2018-02-09T07:24:20.057Z,-1.17
2018-02-09T07:25:20.027Z,-1.19
2018-02-09T07:26:20.041Z,-1.19
2018-02-09T07:27:20.050Z,-1.10
2018-02-09T07:28:20.070Z,-1.21
2018-02-09T07:29:20.086Z,-1.17
2018-02-09T07:30:20.101Z,-1.16
2018-02-09T07:31:20.118Z,-1.22
2018-02-09T07:32:20.125Z,-1.22
2018-02-09T07:33:20.146Z,-1.21
2018-02-09T07:34:20.156Z,-1.35
2018-02-09T07:35:20.175Z,-1.21
2018-02-09T07:36:20.184Z,-1.24
2018-02-09T07:37:20.206Z,-1.28
2018-02-09T07:38:20.214Z,-1.19
2018-02-09T07:39:20.234Z,-1.25
2018-02-09T07:40:20.244Z,-1.24
2018-02-09T07:41:20.264Z,-1.24
2018-02-09T07:42:20.274Z,-1.28
2018-02-09T07:43:20.296Z,-1.19
2018-02-09T07:44:20.309Z,-1.13
2018-02-09T07:45:20.318Z,-1.13
2018-02-09T07:46:20.333Z,-1.10
2018-02-09T07:47:20.353Z,-1.13
2018-02-09T07:48:20.367Z,-1.07
2018-02-09T07:49:20.422Z,-1.07
2018-02-09T07:50:20.397Z,-1.03
2018-02-09T07:51:20.406Z,-1.03
2018-02-09T07:52:20.422Z,-0.98
2018-02-09T07:53:20.441Z,-1.07
2018-02-09T07:54:20.460Z,-1.07
2018-02-09T07:55:20.465Z,-0.96
2018-02-09T07:56:20.480Z,-0.95
2018-02-09T07:57:20.500Z,-0.85
2018-02-09T07:58:20.537Z,-0.87
2018-02-09T07:59:20.524Z,-0.82
2018-02-09T08:00:20.546Z,-0.64
2018-02-09T08:01:20.555Z,-0.61
2018-02-09T08:02:20.576Z,-0.55
2018-02-09T08:03:20.584Z,-0.52
2018-02-09T08:04:20.605Z,-0.58
2018-02-09T08:05:20.615Z,-0.59
2018-02-09T08:06:20.637Z,-0.52
2018-02-09T08:07:20.644Z,-0.46
2018-02-09T08:08:20.658Z,-0.55
2018-02-09T08:09:20.680Z,-0.46
2018-02-09T08:10:20.694Z,-0.51
2018-02-09T08:11:20.704Z,-0.45
2018-02-09T08:12:20.720Z,-0.40
2018-02-09T08:13:20.740Z,-0.43
2018-02-09T08:14:20.751Z,-0.48
2018-02-09T08:15:20.770Z,-0.46
2018-02-09T08:16:20.789Z,-0.41
2018-02-09T08:17:20.801Z,-0.41
2018-02-09T08:18:20.810Z,-0.52
2018-02-09T08:19:20.831Z,-0.46
2018-02-09T08:20:20.840Z,-0.51
2018-02-09T08:21:20.862Z,-0.34
2018-02-09T08:22:20.879Z,-0.45
2018-02-09T08:23:20.886Z,-0.48
2018-02-09T08:24:20.952Z,-0.43
2018-02-09T08:25:20.917Z,-0.41
2018-02-09T08:26:20.937Z,-0.38
2018-02-09T08:27:20.945Z,-0.31
2018-02-09T08:28:20.967Z,-0.33
2018-02-09T08:29:20.978Z,-0.31
2018-02-09T08:30:20.997Z,-0.16
2018-02-09T08:31:21.009Z,-0.27
2018-02-09T08:32:21.024Z,-0.22
2018-02-09T08:33:21.044Z,-0.15
2018-02-09T08:34:21.060Z,-0.07
2018-02-09T08:35:21.069Z,-0.07
2018-02-09T08:36:21.084Z,0.01
2018-02-09T08:37:21.105Z,0.01
2018-02-09T08:38:21.120Z,0.17
2018-02-09T08:39:21.129Z,0.20
2018-02-09T08:40:21.145Z,0.16
2018-02-09T08:41:21.172Z,0.26
2018-02-09T08:42:21.183Z,0.21
2018-02-09T08:43:21.191Z,0.16
2018-02-09T08:44:21.208Z,0.23
2018-02-09T08:45:21.228Z,0.26
2018-02-09T08:46:21.238Z,0.35
2018-02-09T08:47:21.258Z,0.39
2018-02-09T08:48:21.274Z,0.42
2018-02-09T08:49:21.285Z,0.34
2018-02-09T08:50:21.300Z,0.58
2018-02-09T08:51:21.320Z,0.64
2018-02-09T08:52:21.337Z,0.69
2018-02-09T08:53:21.347Z,0.66
2018-02-09T08:54:21.363Z,0.66
2018-02-09T08:55:21.385Z,0.71
2018-02-09T08:56:21.401Z,0.67
2018-02-09T08:57:21.410Z,0.76
2018-02-09T08:58:21.425Z,0.72
2018-02-09T08:59:21.495Z,0.66
2018-02-09T09:00:21.465Z,0.71
2018-02-09T09:01:21.474Z,0.84
2018-02-09T09:02:21.493Z,0.90
2018-02-09T09:03:21.503Z,0.97
2018-02-09T09:04:21.525Z,0.97
2018-02-09T09:05:21.536Z,1.30
2018-02-09T09:06:21.557Z,1.35
2018-02-09T09:07:21.566Z,1.53
2018-02-09T09:08:21.588Z,1.51
2018-02-09T09:09:21.599Z,1.75
2018-02-09T09:10:21.621Z,2.65
2018-02-09T09:11:21.631Z,3.90
2018-02-09T09:12:21.653Z,4.02
2018-02-09T09:13:21.663Z,4.36
2018-02-09T09:14:21.686Z,4.69
2018-02-09T09:15:21.696Z,4.56
2018-02-09T09:16:21.721Z,4.74
2018-02-09T09:17:21.734Z,4.40
2018-02-09T09:18:21.752Z,4.69
2018-02-09T09:19:21.774Z,5.15
2018-02-09T09:20:21.786Z,5.46
2018-02-09T09:21:21.812Z,5.98
2018-02-09T09:22:21.826Z,5.44
2018-02-09T09:23:21.850Z,5.06
2018-02-09T09:24:21.864Z,5.44
2018-02-09T09:25:21.890Z,5.44
2018-02-09T09:26:21.913Z,5.10
2018-02-09T09:27:21.930Z,5.24
2018-02-09T09:28:21.945Z,5.46
2018-02-09T09:29:21.972Z,5.52
2018-02-09T09:30:21.987Z,5.95
2018-02-09T09:31:22.014Z,5.45
2018-02-09T09:32:22.031Z,4.92
2018-02-09T09:33:22.057Z,4.88
2018-02-09T09:34:22.075Z,5.02
2018-02-09T09:35:22.101Z,5.28
2018-02-09T09:36:22.118Z,5.09
2018-02-09T09:37:22.146Z,5.12
2018-02-09T09:38:22.162Z,4.76
2018-02-09T09:39:22.201Z,5.08
2018-02-09T09:40:22.207Z,5.26
2018-02-09T09:41:22.236Z,5.84
2018-02-09T09:42:22.259Z,5.55
2018-02-09T09:43:22.277Z,5.99
2018-02-09T09:44:22.300Z,5.98
2018-02-09T09:45:22.328Z,6.25
2018-02-09T09:46:22.346Z,5.87
2018-02-09T09:47:22.368Z,6.13
2018-02-09T09:48:22.393Z,6.24
2018-02-09T09:49:22.416Z,6.14
2018-02-09T09:50:22.448Z,6.07
2018-02-09T09:51:22.462Z,6.31
2018-02-09T09:52:22.491Z,6.29
2018-02-09T09:53:22.512Z,6.28
2018-02-09T09:54:22.539Z,6.72
2018-02-09T09:55:22.557Z,6.61
2018-02-09T09:56:22.587Z,6.34
2018-02-09T09:57:22.606Z,6.52
2018-02-09T09:58:22.632Z,6.34
2018-02-09T09:59:22.660Z,6.20
2018-02-09T10:00:22.688Z,6.34
2018-02-09T10:01:22.704Z,6.09
2018-02-09T10:02:22.733Z,5.84
2018-02-09T10:03:22.757Z,5.44
2018-02-09T10:04:22.783Z,4.97
2018-02-09T10:05:22.860Z,4.56
2018-02-09T10:06:22.831Z,4.60
2018-02-09T10:07:22.848Z,4.72
2018-02-09T10:08:22.873Z,4.71
2018-02-09T10:09:22.907Z,5.21
2018-02-09T10:10:22.930Z,5.44
2018-02-09T10:11:22.945Z,5.55
2018-02-09T10:12:22.970Z,5.12
2018-02-09T10:13:22.999Z,4.92
2018-02-09T10:14:23.021Z,4.92
2018-02-09T10:15:23.045Z,4.58
2018-02-09T10:16:23.064Z,4.76
2018-02-09T10:17:23.094Z,4.90
2018-02-09T10:18:23.119Z,4.97
2018-02-09T10:19:23.135Z,5.41
2018-02-09T10:20:23.158Z,5.69
2018-02-09T10:21:23.182Z,5.82
2018-02-09T10:22:23.206Z,6.17
2018-02-09T10:23:23.234Z,6.20
2018-02-09T10:24:23.258Z,6.37
2018-02-09T10:25:23.276Z,6.88
2018-02-09T10:26:23.299Z,7.18
2018-02-09T10:27:23.328Z,6.85
2018-02-09T10:28:23.350Z,6.94
2018-02-09T10:29:23.369Z,6.83
2018-02-09T10:30:23.394Z,6.94
2018-02-09T10:31:23.417Z,6.60
2018-02-09T10:32:23.446Z,6.86
2018-02-09T10:33:23.465Z,6.90
2018-02-09T10:34:23.489Z,6.72
2018-02-09T10:35:23.518Z,7.37
2018-02-09T10:36:23.542Z,7.73
2018-02-09T10:37:23.568Z,7.36
2018-02-09T10:38:23.585Z,7.34
2018-02-09T10:39:23.617Z,7.49
2018-02-09T10:40:23.634Z,6.83
2018-02-09T10:41:23.664Z,6.70
2018-02-09T10:42:23.686Z,6.78
2018-02-09T10:43:23.713Z,6.83
2018-02-09T10:44:23.733Z,6.82
2018-02-09T10:45:23.764Z,7.16
2018-02-09T10:46:23.789Z,7.19
2018-02-09T10:47:23.813Z,7.37
2018-02-09T10:48:23.831Z,7.26
2018-02-09T10:49:23.862Z,7.99
2018-02-09T10:50:23.888Z,7.88
2018-02-09T10:51:23.961Z,7.89
2018-02-09T10:52:23.931Z,8.24
2018-02-09T10:53:23.956Z,8.35
2018-02-09T10:54:23.987Z,7.96
2018-02-09T10:55:24.005Z,7.95
2018-02-09T10:56:24.037Z,8.04
2018-02-09T10:57:24.057Z,7.82
2018-02-09T10:58:24.088Z,8.11
2018-02-09T10:59:24.106Z,7.83
2018-02-09T11:00:24.140Z,7.00
2018-02-09T11:01:24.159Z,7.11
2018-02-09T11:02:24.188Z,7.27
2018-02-09T11:03:24.208Z,6.88
2018-02-09T11:04:24.234Z,7.45
2018-02-09T11:05:24.263Z,7.51
2018-02-09T11:06:24.289Z,7.49
2018-02-09T11:07:24.313Z,7.98
2018-02-09T11:08:24.333Z,7.63
2018-02-09T11:09:24.360Z,7.58
2018-02-09T11:10:24.389Z,7.36
2018-02-09T11:11:24.409Z,7.15
2018-02-09T11:12:24.435Z,7.18
2018-02-09T11:13:24.465Z,7.49
2018-02-09T11:14:24.490Z,7.09
2018-02-09T11:15:24.509Z,7.30
2018-02-09T11:16:24.532Z,7.49
2018-02-09T11:17:24.565Z,7.75
2018-02-09T11:18:24.590Z,7.89
2018-02-09T11:19:24.614Z,7.82
2018-02-09T11:20:24.639Z,7.68
2018-02-09T11:21:24.658Z,7.61
2018-02-09T11:22:24.689Z,8.14
2018-02-09T11:23:24.707Z,8.39
2018-02-09T11:24:24.738Z,8.53
2018-02-09T11:25:24.763Z,9.20
2018-02-09T11:26:24.782Z,9.01
2018-02-09T11:27:24.815Z,8.82
2018-02-09T11:28:24.838Z,8.16
2018-02-09T11:29:24.859Z,8.14
2018-02-09T11:30:24.883Z,8.49
2018-02-09T11:31:24.912Z,8.68
2018-02-09T11:32:24.938Z,8.52
2018-02-09T11:33:24.960Z,8.46
2018-02-09T11:34:24.988Z,8.62
2018-02-09T11:35:25.014Z,8.95
2018-02-09T11:36:25.034Z,9.32
2018-02-09T11:37:25.065Z,9.30
2018-02-09T11:38:25.090Z,8.67
2018-02-09T11:39:25.108Z,8.53
2018-02-09T11:40:25.182Z,8.43
2018-02-09T11:41:25.161Z,8.53
2018-02-09T11:42:25.195Z,8.52
2018-02-09T11:43:25.211Z,8.17
2018-02-09T11:44:25.242Z,8.32
2018-02-09T11:45:25.262Z,8.60
2018-02-09T11:46:25.294Z,8.69
2018-02-09T11:47:25.313Z,8.74
2018-02-09T11:48:25.343Z,9.05
2018-02-09T11:49:25.363Z,8.53
2018-02-09T11:50:25.394Z,8.49
2018-02-09T11:51:25.414Z,8.69
2018-02-09T11:52:25.447Z,8.72
2018-02-09T11:53:25.465Z,8.71
2018-02-09T11:54:25.497Z,8.89
2018-02-09T11:55:25.516Z,8.74
2018-02-09T11:56:25.548Z,9.17
2018-02-09T11:57:25.567Z,9.42
2018-02-09T11:58:25.592Z,9.27
2018-02-09T11:59:25.623Z,9.05
2018-02-09T12:00:25.642Z,9.00
2018-02-09T12:01:25.673Z,8.67
2018-02-09T12:02:25.693Z,8.72
2018-02-09T12:03:25.724Z,9.34
2018-02-09T12:04:25.743Z,8.97
2018-02-09T12:05:25.776Z,8.92
2018-02-09T12:06:25.794Z,9.00
2018-02-09T12:07:25.825Z,9.12
2018-02-09T12:08:25.845Z,9.09
2018-02-09T12:09:25.876Z,8.76
2018-02-09T12:10:25.895Z,8.34
2018-02-09T12:11:25.926Z,8.52
2018-02-09T12:12:25.945Z,8.26
2018-02-09T12:13:25.980Z,8.03
2018-02-09T12:14:26.004Z,7.89
2018-02-09T12:15:26.022Z,7.85
2018-02-09T12:16:26.047Z,8.24
2018-02-09T12:17:26.078Z,8.69
2018-02-09T12:18:26.106Z,8.76
2018-02-09T12:19:26.122Z,8.39
2018-02-09T12:20:26.147Z,8.64
2018-02-09T12:21:26.177Z,8.80
2018-02-09T12:22:26.202Z,8.52
2018-02-09T12:23:26.263Z,8.32
2018-02-09T12:24:26.246Z,7.95
2018-02-09T12:25:26.277Z,8.22
2018-02-09T12:26:26.302Z,8.01
2018-02-09T12:27:26.320Z,7.85
2018-02-09T12:28:26.347Z,7.83
2018-02-09T12:29:26.376Z,8.01
2018-02-09T12:30:26.394Z,7.71
2018-02-09T12:31:26.424Z,7.78
2018-02-09T12:32:26.449Z,8.01
2018-02-09T12:33:26.469Z,7.99
2018-02-09T12:34:26.493Z,7.85
2018-02-09T12:35:26.526Z,7.64
2018-02-09T12:36:26.547Z,7.48
2018-02-09T12:37:26.566Z,7.96
2018-02-09T12:38:26.589Z,8.04
2018-02-09T12:39:26.618Z,8.19
2018-02-09T12:40:26.643Z,8.26
2018-02-09T12:41:26.661Z,8.58
2018-02-09T12:42:26.685Z,8.67
2018-02-09T12:43:26.714Z,7.56
2018-02-09T12:44:26.740Z,7.31
2018-02-09T12:45:26.758Z,6.94
2018-02-09T12:46:26.787Z,6.73
2018-02-09T12:47:26.810Z,6.72
2018-02-09T12:48:26.835Z,7.19
2018-02-09T12:49:26.852Z,7.70
2018-02-09T12:50:26.882Z,8.39
2018-02-09T12:51:26.900Z,8.22
2018-02-09T12:52:26.929Z,7.83
2018-02-09T12:53:26.947Z,7.63
2018-02-09T12:54:26.976Z,7.98
2018-02-09T12:55:26.994Z,7.64
2018-02-09T12:56:27.018Z,7.86
2018-02-09T12:57:27.045Z,7.56
2018-02-09T12:58:27.070Z,8.09
2018-02-09T12:59:27.086Z,8.52
2018-02-09T13:00:27.110Z,8.74
2018-02-09T13:01:27.139Z,9.26